sensor_id;sensor_type;location;lat;lon;timestamp;P1;durP1;ratioP1;P2;durP2;ratioP2
26319;SDS011;14024;52.226;5.200;2022-08-01T00:00:27;12.40;;;7.50;;
26319;SDS011;14024;52.226;5.200;2022-08-01T00:02:53;19.08;;;8.50;;
26319;SDS011;14024;52.226;5.200;2022-08-01T00:05:19;13.75;;;6.85;;
26319;SDS011;14024;52.226;5.200;2022-08-01T00:07:45;22.55;;;7.78;;
26319;SDS011;14024;52.226;5.200;2022-08-01T00:10:11;11.63;;;6.97;;
26319;SDS011;14024;52.226;5.200;2022-08-01T00:12:38;14.45;;;7.15;;
26319;SDS011;14024;52.226;5.200;2022-08-01T00:15:04;16.70;;;8.38;;
26319;SDS011;14024;52.226;5.200;2022-08-01T00:17:34;15.85;;;8.52;;
26319;SDS011;14024;52.226;5.200;2022-08-01T00:20:00;14.60;;;8.30;;
26319;SDS011;14024;52.226;5.200;2022-08-01T00:22:28;13.98;;;8.07;;
26319;SDS011;14024;52.226;5.200;2022-08-01T00:24:54;20.58;;;9.38;;
26319;SDS011;14024;52.226;5.200;2022-08-01T00:27:20;17.50;;;8.30;;
26319;SDS011;14024;52.226;5.200;2022-08-01T00:29:46;14.43;;;8.13;;
26319;SDS011;14024;52.226;5.200;2022-08-01T00:32:12;15.82;;;9.20;;
26319;SDS011;14024;52.226;5.200;2022-08-01T00:34:37;15.68;;;8.25;;
26319;SDS011;14024;52.226;5.200;2022-08-01T00:37:03;16.92;;;9.43;;
26319;SDS011;14024;52.226;5.200;2022-08-01T00:39:29;15.43;;;8.55;;
26319;SDS011;14024;52.226;5.200;2022-08-01T00:41:57;15.65;;;9.35;;
26319;SDS011;14024;52.226;5.200;2022-08-01T00:44:23;16.60;;;8.90;;
26319;SDS011;14024;52.226;5.200;2022-08-01T00:46:49;16.35;;;8.60;;
26319;SDS011;14024;52.226;5.200;2022-08-01T00:49:15;16.90;;;9.00;;
26319;SDS011;14024;52.226;5.200;2022-08-01T00:51:41;23.92;;;9.18;;
26319;SDS011;14024;52.226;5.200;2022-08-01T00:54:07;16.27;;;8.50;;
26319;SDS011;14024;52.226;5.200;2022-08-01T00:56:33;16.02;;;8.00;;
26319;SDS011;14024;52.226;5.200;2022-08-01T00:59:00;16.20;;;7.55;;
26319;SDS011;14024;52.226;5.200;2022-08-01T01:01:28;15.93;;;8.80;;
26319;SDS011;14024;52.226;5.200;2022-08-01T01:03:54;14.13;;;8.10;;
26319;SDS011;14024;52.226;5.200;2022-08-01T01:06:30;15.27;;;8.88;;
26319;SDS011;14024;52.226;5.200;2022-08-01T01:11:28;17.17;;;8.98;;
26319;SDS011;14024;52.226;5.200;2022-08-01T01:14:02;16.70;;;8.82;;
26319;SDS011;14024;52.226;5.200;2022-08-01T01:16:30;18.02;;;8.63;;
26319;SDS011;14024;52.226;5.200;2022-08-01T01:18:57;19.13;;;9.10;;
26319;SDS011;14024;52.226;5.200;2022-08-01T01:21:35;15.35;;;8.60;;
26319;SDS011;14024;52.226;5.200;2022-08-01T01:32:29;25.05;;;10.73;;
26319;SDS011;14024;52.226;5.200;2022-08-01T01:34:52;20.65;;;10.27;;
26319;SDS011;14024;52.226;5.200;2022-08-01T01:37:20;20.55;;;9.98;;
26319;SDS011;14024;52.226;5.200;2022-08-01T01:39:51;20.67;;;10.90;;
26319;SDS011;14024;52.226;5.200;2022-08-01T01:42:18;20.65;;;9.85;;
26319;SDS011;14024;52.226;5.200;2022-08-01T01:44:45;21.58;;;10.13;;
26319;SDS011;14024;52.226;5.200;2022-08-01T01:47:15;16.55;;;8.75;;
26319;SDS011;14024;52.226;5.200;2022-08-01T01:49:41;22.45;;;10.57;;
26319;SDS011;14024;52.226;5.200;2022-08-01T01:52:10;20.45;;;10.10;;
26319;SDS011;14024;52.226;5.200;2022-08-01T01:54:39;14.90;;;8.77;;
26319;SDS011;14024;52.226;5.200;2022-08-01T01:57:06;16.48;;;8.65;;
26319;SDS011;14024;52.226;5.200;2022-08-01T01:59:36;16.98;;;8.60;;
26319;SDS011;14024;52.226;5.200;2022-08-01T02:02:04;16.60;;;9.52;;
26319;SDS011;14024;52.226;5.200;2022-08-01T02:04:31;16.27;;;9.30;;
26319;SDS011;14024;52.226;5.200;2022-08-01T02:06:58;17.10;;;9.15;;
26319;SDS011;14024;52.226;5.200;2022-08-01T02:09:24;16.52;;;8.93;;
26319;SDS011;14024;52.226;5.200;2022-08-01T02:11:53;14.35;;;8.68;;
26319;SDS011;14024;52.226;5.200;2022-08-01T02:14:23;14.73;;;8.80;;
26319;SDS011;14024;52.226;5.200;2022-08-01T02:16:51;15.63;;;8.68;;
26319;SDS011;14024;52.226;5.200;2022-08-01T02:19:18;15.88;;;9.65;;
26319;SDS011;14024;52.226;5.200;2022-08-01T02:21:51;14.65;;;8.82;;
26319;SDS011;14024;52.226;5.200;2022-08-01T02:24:25;17.13;;;9.60;;
26319;SDS011;14024;52.226;5.200;2022-08-01T02:26:54;14.82;;;8.55;;
26319;SDS011;14024;52.226;5.200;2022-08-01T02:29:22;15.48;;;9.02;;
26319;SDS011;14024;52.226;5.200;2022-08-01T02:31:49;15.68;;;8.60;;
26319;SDS011;14024;52.226;5.200;2022-08-01T02:34:19;14.52;;;8.57;;
26319;SDS011;14024;52.226;5.200;2022-08-01T02:36:45;13.98;;;8.15;;
26319;SDS011;14024;52.226;5.200;2022-08-01T02:39:13;12.73;;;7.80;;
26319;SDS011;14024;52.226;5.200;2022-08-01T02:41:41;12.05;;;7.82;;
26319;SDS011;14024;52.226;5.200;2022-08-01T02:44:08;11.85;;;7.68;;
26319;SDS011;14024;52.226;5.200;2022-08-01T02:46:37;15.20;;;8.10;;
26319;SDS011;14024;52.226;5.200;2022-08-01T02:49:05;12.63;;;7.90;;
26319;SDS011;14024;52.226;5.200;2022-08-01T02:51:32;15.55;;;8.55;;
26319;SDS011;14024;52.226;5.200;2022-08-01T02:54:01;14.25;;;8.70;;
26319;SDS011;14024;52.226;5.200;2022-08-01T02:56:28;14.30;;;8.23;;
26319;SDS011;14024;52.226;5.200;2022-08-01T02:59:00;15.18;;;8.48;;
26319;SDS011;14024;52.226;5.200;2022-08-01T03:01:27;14.63;;;9.23;;
26319;SDS011;14024;52.226;5.200;2022-08-01T03:03:53;15.93;;;8.20;;
26319;SDS011;14024;52.226;5.200;2022-08-01T03:06:20;16.30;;;8.18;;
26319;SDS011;14024;52.226;5.200;2022-08-01T03:08:46;16.13;;;8.65;;
26319;SDS011;14024;52.226;5.200;2022-08-01T03:11:13;12.57;;;8.13;;
26319;SDS011;14024;52.226;5.200;2022-08-01T03:13:41;18.92;;;9.10;;
26319;SDS011;14024;52.226;5.200;2022-08-01T03:16:08;16.95;;;8.70;;
26319;SDS011;14024;52.226;5.200;2022-08-01T03:18:35;19.10;;;9.23;;
26319;SDS011;14024;52.226;5.200;2022-08-01T03:21:02;15.15;;;7.82;;
26319;SDS011;14024;52.226;5.200;2022-08-01T03:23:28;12.55;;;8.60;;
26319;SDS011;14024;52.226;5.200;2022-08-01T03:25:56;13.85;;;8.57;;
26319;SDS011;14024;52.226;5.200;2022-08-01T03:28:22;13.60;;;8.75;;
26319;SDS011;14024;52.226;5.200;2022-08-01T03:30:49;14.43;;;8.60;;
26319;SDS011;14024;52.226;5.200;2022-08-01T03:33:15;16.95;;;9.32;;
26319;SDS011;14024;52.226;5.200;2022-08-01T03:35:46;12.57;;;8.40;;
26319;SDS011;14024;52.226;5.200;2022-08-01T03:38:12;13.52;;;8.82;;
26319;SDS011;14024;52.226;5.200;2022-08-01T03:40:40;14.95;;;7.78;;
26319;SDS011;14024;52.226;5.200;2022-08-01T03:43:15;11.85;;;8.10;;
26319;SDS011;14024;52.226;5.200;2022-08-01T03:45:45;12.18;;;8.85;;
26319;SDS011;14024;52.226;5.200;2022-08-01T03:48:13;14.73;;;9.27;;
26319;SDS011;14024;52.226;5.200;2022-08-01T03:50:41;15.60;;;8.40;;
26319;SDS011;14024;52.226;5.200;2022-08-01T03:53:08;15.13;;;8.88;;
26319;SDS011;14024;52.226;5.200;2022-08-01T03:55:35;14.88;;;8.70;;
26319;SDS011;14024;52.226;5.200;2022-08-01T03:58:02;18.80;;;10.32;;
26319;SDS011;14024;52.226;5.200;2022-08-01T04:00:29;18.80;;;9.48;;
26319;SDS011;14024;52.226;5.200;2022-08-01T04:02:55;14.95;;;9.05;;
26319;SDS011;14024;52.226;5.200;2022-08-01T04:05:21;17.05;;;9.38;;
26319;SDS011;14024;52.226;5.200;2022-08-01T04:07:49;16.08;;;9.13;;
26319;SDS011;14024;52.226;5.200;2022-08-01T04:10:22;17.13;;;8.98;;
26319;SDS011;14024;52.226;5.200;2022-08-01T04:12:48;16.15;;;8.70;;
26319;SDS011;14024;52.226;5.200;2022-08-01T04:15:14;13.00;;;7.63;;
26319;SDS011;14024;52.226;5.200;2022-08-01T04:17:40;12.75;;;7.68;;
26319;SDS011;14024;52.226;5.200;2022-08-01T04:20:06;17.23;;;7.82;;
26319;SDS011;14024;52.226;5.200;2022-08-01T04:22:33;14.90;;;7.63;;
26319;SDS011;14024;52.226;5.200;2022-08-01T04:25:00;12.05;;;6.90;;
26319;SDS011;14024;52.226;5.200;2022-08-01T04:27:31;14.30;;;7.10;;
26319;SDS011;14024;52.226;5.200;2022-08-01T04:29:59;8.95;;;6.50;;
26319;SDS011;14024;52.226;5.200;2022-08-01T04:32:26;10.75;;;6.15;;
26319;SDS011;14024;52.226;5.200;2022-08-01T04:34:53;9.90;;;4.88;;
26319;SDS011;14024;52.226;5.200;2022-08-01T04:37:20;7.22;;;4.05;;
26319;SDS011;14024;52.226;5.200;2022-08-01T04:39:46;5.95;;;3.95;;
26319;SDS011;14024;52.226;5.200;2022-08-01T04:42:14;6.57;;;3.78;;
26319;SDS011;14024;52.226;5.200;2022-08-01T04:44:40;9.20;;;4.15;;
26319;SDS011;14024;52.226;5.200;2022-08-01T04:47:06;6.13;;;4.15;;
26319;SDS011;14024;52.226;5.200;2022-08-01T04:49:33;4.75;;;2.80;;
26319;SDS011;14024;52.226;5.200;2022-08-01T04:51:59;4.60;;;3.33;;
26319;SDS011;14024;52.226;5.200;2022-08-01T04:54:33;5.82;;;3.30;;
26319;SDS011;14024;52.226;5.200;2022-08-01T04:57:02;3.13;;;2.50;;
26319;SDS011;14024;52.226;5.200;2022-08-01T04:59:28;3.63;;;2.70;;
26319;SDS011;14024;52.226;5.200;2022-08-01T05:04:33;6.03;;;2.63;;
26319;SDS011;14024;52.226;5.200;2022-08-01T05:06:59;2.85;;;2.13;;
26319;SDS011;14024;52.226;5.200;2022-08-01T05:09:25;3.28;;;2.58;;
26319;SDS011;14024;52.226;5.200;2022-08-01T05:11:51;6.00;;;2.08;;
26319;SDS011;14024;52.226;5.200;2022-08-01T05:14:17;2.80;;;2.22;;
26319;SDS011;14024;52.226;5.200;2022-08-01T05:16:44;2.58;;;2.38;;
26319;SDS011;14024;52.226;5.200;2022-08-01T05:19:10;6.35;;;2.70;;
26319;SDS011;14024;52.226;5.200;2022-08-01T05:21:36;3.00;;;2.40;;
26319;SDS011;14024;52.226;5.200;2022-08-01T05:24:03;3.78;;;2.40;;
26319;SDS011;14024;52.226;5.200;2022-08-01T05:26:29;2.92;;;2.38;;
26319;SDS011;14024;52.226;5.200;2022-08-01T05:28:55;4.82;;;2.20;;
26319;SDS011;14024;52.226;5.200;2022-08-01T05:31:21;3.63;;;2.50;;
26319;SDS011;14024;52.226;5.200;2022-08-01T05:33:47;3.38;;;2.40;;
26319;SDS011;14024;52.226;5.200;2022-08-01T05:36:13;3.28;;;2.42;;
26319;SDS011;14024;52.226;5.200;2022-08-01T05:38:39;4.07;;;2.20;;
26319;SDS011;14024;52.226;5.200;2022-08-01T05:41:05;3.15;;;2.30;;
26319;SDS011;14024;52.226;5.200;2022-08-01T05:43:31;3.65;;;2.63;;
26319;SDS011;14024;52.226;5.200;2022-08-01T05:45:57;3.83;;;2.80;;
26319;SDS011;14024;52.226;5.200;2022-08-01T05:48:23;8.13;;;3.30;;
26319;SDS011;14024;52.226;5.200;2022-08-01T05:50:49;6.40;;;3.60;;
26319;SDS011;14024;52.226;5.200;2022-08-01T05:53:16;8.90;;;4.22;;
26319;SDS011;14024;52.226;5.200;2022-08-01T05:55:42;8.23;;;4.30;;
26319;SDS011;14024;52.226;5.200;2022-08-01T05:58:08;14.73;;;5.05;;
26319;SDS011;14024;52.226;5.200;2022-08-01T06:00:34;10.60;;;5.57;;
26319;SDS011;14024;52.226;5.200;2022-08-01T06:03:00;9.98;;;4.68;;
26319;SDS011;14024;52.226;5.200;2022-08-01T06:05:26;12.85;;;4.55;;
26319;SDS011;14024;52.226;5.200;2022-08-01T06:07:52;12.10;;;4.55;;
26319;SDS011;14024;52.226;5.200;2022-08-01T06:10:18;17.13;;;5.63;;
26319;SDS011;14024;52.226;5.200;2022-08-01T06:12:44;9.65;;;5.28;;
26319;SDS011;14024;52.226;5.200;2022-08-01T06:15:10;13.85;;;4.70;;
26319;SDS011;14024;52.226;5.200;2022-08-01T06:17:36;13.43;;;4.70;;
26319;SDS011;14024;52.226;5.200;2022-08-01T06:20:04;13.50;;;5.18;;
26319;SDS011;14024;52.226;5.200;2022-08-01T06:22:31;11.15;;;5.00;;
26319;SDS011;14024;52.226;5.200;2022-08-01T06:24:57;14.55;;;5.68;;
26319;SDS011;14024;52.226;5.200;2022-08-01T06:27:23;11.05;;;4.72;;
26319;SDS011;14024;52.226;5.200;2022-08-01T06:29:52;11.35;;;5.13;;
26319;SDS011;14024;52.226;5.200;2022-08-01T06:32:21;20.52;;;5.10;;
26319;SDS011;14024;52.226;5.200;2022-08-01T06:34:47;14.32;;;4.40;;
26319;SDS011;14024;52.226;5.200;2022-08-01T06:37:14;13.20;;;4.60;;
26319;SDS011;14024;52.226;5.200;2022-08-01T06:39:41;20.30;;;5.50;;
26319;SDS011;14024;52.226;5.200;2022-08-01T06:42:07;19.55;;;5.22;;
26319;SDS011;14024;52.226;5.200;2022-08-01T06:44:34;13.95;;;5.05;;
26319;SDS011;14024;52.226;5.200;2022-08-01T06:47:00;12.23;;;4.90;;
26319;SDS011;14024;52.226;5.200;2022-08-01T06:49:26;22.40;;;5.30;;
26319;SDS011;14024;52.226;5.200;2022-08-01T06:51:52;17.80;;;5.05;;
26319;SDS011;14024;52.226;5.200;2022-08-01T06:54:18;21.92;;;5.00;;
26319;SDS011;14024;52.226;5.200;2022-08-01T06:56:44;17.10;;;5.60;;
26319;SDS011;14024;52.226;5.200;2022-08-01T06:59:10;18.70;;;5.28;;
26319;SDS011;14024;52.226;5.200;2022-08-01T07:01:36;18.85;;;6.05;;
26319;SDS011;14024;52.226;5.200;2022-08-01T07:04:02;20.33;;;5.63;;
26319;SDS011;14024;52.226;5.200;2022-08-01T07:06:28;22.98;;;5.00;;
26319;SDS011;14024;52.226;5.200;2022-08-01T07:08:54;22.52;;;5.75;;
26319;SDS011;14024;52.226;5.200;2022-08-01T07:11:21;17.08;;;4.85;;
26319;SDS011;14024;52.226;5.200;2022-08-01T07:13:48;21.13;;;4.32;;
26319;SDS011;14024;52.226;5.200;2022-08-01T07:16:14;19.48;;;4.90;;
26319;SDS011;14024;52.226;5.200;2022-08-01T07:18:40;20.00;;;4.72;;
26319;SDS011;14024;52.226;5.200;2022-08-01T07:21:06;20.52;;;3.78;;
26319;SDS011;14024;52.226;5.200;2022-08-01T07:23:32;11.73;;;3.78;;
26319;SDS011;14024;52.226;5.200;2022-08-01T07:25:58;13.30;;;4.13;;
26319;SDS011;14024;52.226;5.200;2022-08-01T07:28:26;15.80;;;4.47;;
26319;SDS011;14024;52.226;5.200;2022-08-01T07:30:52;12.60;;;4.28;;
26319;SDS011;14024;52.226;5.200;2022-08-01T07:33:18;18.75;;;3.90;;
26319;SDS011;14024;52.226;5.200;2022-08-01T07:35:44;13.13;;;3.90;;
26319;SDS011;14024;52.226;5.200;2022-08-01T07:38:10;15.68;;;4.97;;
26319;SDS011;14024;52.226;5.200;2022-08-01T07:40:36;13.13;;;4.20;;
26319;SDS011;14024;52.226;5.200;2022-08-01T07:43:02;11.52;;;3.65;;
26319;SDS011;14024;52.226;5.200;2022-08-01T07:45:28;15.23;;;3.55;;
26319;SDS011;14024;52.226;5.200;2022-08-01T07:47:54;16.30;;;4.13;;
26319;SDS011;14024;52.226;5.200;2022-08-01T07:50:20;18.95;;;4.32;;
26319;SDS011;14024;52.226;5.200;2022-08-01T07:52:46;17.40;;;4.82;;
26319;SDS011;14024;52.226;5.200;2022-08-01T07:55:12;17.30;;;3.60;;
26319;SDS011;14024;52.226;5.200;2022-08-01T07:57:38;21.00;;;4.15;;
26319;SDS011;14024;52.226;5.200;2022-08-01T08:00:05;13.38;;;4.00;;
26319;SDS011;14024;52.226;5.200;2022-08-01T08:02:32;15.50;;;4.03;;
26319;SDS011;14024;52.226;5.200;2022-08-01T08:04:58;20.67;;;3.80;;
26319;SDS011;14024;52.226;5.200;2022-08-01T08:07:24;15.98;;;3.70;;
26319;SDS011;14024;52.226;5.200;2022-08-01T08:09:49;15.13;;;3.78;;
26319;SDS011;14024;52.226;5.200;2022-08-01T08:12:15;16.25;;;3.53;;
26319;SDS011;14024;52.226;5.200;2022-08-01T08:14:41;18.90;;;3.90;;
26319;SDS011;14024;52.226;5.200;2022-08-01T08:17:07;19.50;;;4.07;;
26319;SDS011;14024;52.226;5.200;2022-08-01T08:19:33;19.40;;;3.35;;
26319;SDS011;14024;52.226;5.200;2022-08-01T08:22:02;20.40;;;4.20;;
26319;SDS011;14024;52.226;5.200;2022-08-01T08:24:28;18.95;;;3.80;;
26319;SDS011;14024;52.226;5.200;2022-08-01T08:26:55;19.80;;;3.22;;
26319;SDS011;14024;52.226;5.200;2022-08-01T08:29:22;11.77;;;3.45;;
26319;SDS011;14024;52.226;5.200;2022-08-01T08:31:48;15.05;;;4.18;;
26319;SDS011;14024;52.226;5.200;2022-08-01T08:34:15;18.25;;;3.42;;
26319;SDS011;14024;52.226;5.200;2022-08-01T08:36:41;17.58;;;4.10;;
26319;SDS011;14024;52.226;5.200;2022-08-01T08:39:07;18.40;;;3.88;;
26319;SDS011;14024;52.226;5.200;2022-08-01T08:41:33;18.13;;;3.97;;
26319;SDS011;14024;52.226;5.200;2022-08-01T08:44:00;15.80;;;3.97;;
26319;SDS011;14024;52.226;5.200;2022-08-01T08:46:26;18.95;;;3.50;;
26319;SDS011;14024;52.226;5.200;2022-08-01T08:48:53;9.10;;;3.03;;
26319;SDS011;14024;52.226;5.200;2022-08-01T08:51:19;15.20;;;3.47;;
26319;SDS011;14024;52.226;5.200;2022-08-01T08:53:46;13.10;;;3.22;;
26319;SDS011;14024;52.226;5.200;2022-08-01T08:56:13;15.85;;;3.13;;
26319;SDS011;14024;52.226;5.200;2022-08-01T08:58:46;12.95;;;2.95;;
26319;SDS011;14024;52.226;5.200;2022-08-01T09:01:13;13.88;;;3.40;;
26319;SDS011;14024;52.226;5.200;2022-08-01T09:03:39;14.57;;;3.35;;
26319;SDS011;14024;52.226;5.200;2022-08-01T09:06:06;14.30;;;3.28;;
26319;SDS011;14024;52.226;5.200;2022-08-01T09:08:32;13.88;;;3.70;;
26319;SDS011;14024;52.226;5.200;2022-08-01T09:10:58;9.13;;;3.20;;
26319;SDS011;14024;52.226;5.200;2022-08-01T09:13:24;11.48;;;3.70;;
26319;SDS011;14024;52.226;5.200;2022-08-01T09:15:51;9.27;;;3.22;;
26319;SDS011;14024;52.226;5.200;2022-08-01T09:18:35;17.40;;;2.80;;
26319;SDS011;14024;52.226;5.200;2022-08-01T09:24:12;17.05;;;3.53;;
26319;SDS011;14024;52.226;5.200;2022-08-01T09:26:31;13.52;;;4.00;;
26319;SDS011;14024;52.226;5.200;2022-08-01T09:28:58;12.65;;;2.80;;
26319;SDS011;14024;52.226;5.200;2022-08-01T09:31:25;8.82;;;2.90;;
26319;SDS011;14024;52.226;5.200;2022-08-01T09:33:53;9.48;;;2.60;;
26319;SDS011;14024;52.226;5.200;2022-08-01T09:36:23;15.23;;;3.00;;
26319;SDS011;14024;52.226;5.200;2022-08-01T09:38:50;16.42;;;3.78;;
26319;SDS011;14024;52.226;5.200;2022-08-01T09:41:16;12.98;;;3.55;;
26319;SDS011;14024;52.226;5.200;2022-08-01T09:43:47;12.60;;;3.00;;
26319;SDS011;14024;52.226;5.200;2022-08-01T09:46:14;11.93;;;3.17;;
26319;SDS011;14024;52.226;5.200;2022-08-01T09:51:59;11.95;;;3.08;;
26319;SDS011;14024;52.226;5.200;2022-08-01T09:54:27;13.68;;;2.83;;
26319;SDS011;14024;52.226;5.200;2022-08-01T09:56:53;7.25;;;2.55;;
26319;SDS011;14024;52.226;5.200;2022-08-01T09:59:19;13.98;;;3.17;;
26319;SDS011;14024;52.226;5.200;2022-08-01T10:01:46;14.32;;;2.90;;
26319;SDS011;14024;52.226;5.200;2022-08-01T10:04:16;13.70;;;2.88;;
26319;SDS011;14024;52.226;5.200;2022-08-01T10:06:44;11.88;;;2.90;;
26319;SDS011;14024;52.226;5.200;2022-08-01T10:09:11;11.95;;;3.35;;
26319;SDS011;14024;52.226;5.200;2022-08-01T10:11:37;6.10;;;2.42;;
26319;SDS011;14024;52.226;5.200;2022-08-01T10:14:07;13.80;;;3.65;;
26319;SDS011;14024;52.226;5.200;2022-08-01T10:16:33;11.23;;;3.08;;
26319;SDS011;14024;52.226;5.200;2022-08-01T10:19:00;8.27;;;3.35;;
26319;SDS011;14024;52.226;5.200;2022-08-01T10:21:27;12.57;;;3.65;;
26319;SDS011;14024;52.226;5.200;2022-08-01T10:23:54;15.85;;;3.47;;
26319;SDS011;14024;52.226;5.200;2022-08-01T10:26:20;11.25;;;3.22;;
26319;SDS011;14024;52.226;5.200;2022-08-01T10:28:48;10.73;;;3.13;;
26319;SDS011;14024;52.226;5.200;2022-08-01T10:31:14;9.15;;;3.15;;
26319;SDS011;14024;52.226;5.200;2022-08-01T10:33:44;15.25;;;3.03;;
26319;SDS011;14024;52.226;5.200;2022-08-01T10:36:10;6.50;;;2.63;;
26319;SDS011;14024;52.226;5.200;2022-08-01T10:38:36;8.98;;;2.85;;
26319;SDS011;14024;52.226;5.200;2022-08-01T10:41:03;11.80;;;3.00;;
26319;SDS011;14024;52.226;5.200;2022-08-01T10:43:29;10.25;;;2.60;;
26319;SDS011;14024;52.226;5.200;2022-08-01T10:45:55;5.70;;;2.17;;
26319;SDS011;14024;52.226;5.200;2022-08-01T10:48:28;8.18;;;2.88;;
26319;SDS011;14024;52.226;5.200;2022-08-01T10:50:56;8.63;;;2.38;;
26319;SDS011;14024;52.226;5.200;2022-08-01T10:53:24;8.10;;;2.60;;
26319;SDS011;14024;52.226;5.200;2022-08-01T10:55:52;9.20;;;2.50;;
26319;SDS011;14024;52.226;5.200;2022-08-01T10:58:32;7.30;;;2.95;;
26319;SDS011;14024;52.226;5.200;2022-08-01T11:04:01;9.05;;;2.40;;
26319;SDS011;14024;52.226;5.200;2022-08-01T11:06:35;9.93;;;3.10;;
26319;SDS011;14024;52.226;5.200;2022-08-01T11:09:21;10.60;;;2.67;;
26319;SDS011;14024;52.226;5.200;2022-08-01T11:12:02;9.50;;;2.30;;
26319;SDS011;14024;52.226;5.200;2022-08-01T11:14:31;10.68;;;2.50;;
26319;SDS011;14024;52.226;5.200;2022-08-01T11:17:25;8.95;;;2.45;;
26319;SDS011;14024;52.226;5.200;2022-08-01T11:22:28;5.82;;;2.35;;
26319;SDS011;14024;52.226;5.200;2022-08-01T11:24:54;11.40;;;2.35;;
26319;SDS011;14024;52.226;5.200;2022-08-01T11:32:33;6.93;;;2.42;;
26319;SDS011;14024;52.226;5.200;2022-08-01T11:34:59;6.93;;;2.45;;
26319;SDS011;14024;52.226;5.200;2022-08-01T11:37:26;7.82;;;2.50;;
26319;SDS011;14024;52.226;5.200;2022-08-01T11:42:37;5.63;;;2.45;;
26319;SDS011;14024;52.226;5.200;2022-08-01T11:45:03;5.20;;;2.25;;
26319;SDS011;14024;52.226;5.200;2022-08-01T11:47:45;9.00;;;2.50;;
26319;SDS011;14024;52.226;5.200;2022-08-01T11:55:26;9.57;;;2.17;;
26319;SDS011;14024;52.226;5.200;2022-08-01T11:58:00;8.55;;;2.40;;
26319;SDS011;14024;52.226;5.200;2022-08-01T12:00:26;8.13;;;2.17;;
26319;SDS011;14024;52.226;5.200;2022-08-01T12:02:59;9.55;;;2.17;;
26319;SDS011;14024;52.226;5.200;2022-08-01T12:07:53;8.02;;;2.15;;
26319;SDS011;14024;52.226;5.200;2022-08-01T12:10:20;6.47;;;2.00;;
26319;SDS011;14024;52.226;5.200;2022-08-01T12:12:50;9.32;;;2.20;;
26319;SDS011;14024;52.226;5.200;2022-08-01T12:15:17;10.68;;;2.38;;
26319;SDS011;14024;52.226;5.200;2022-08-01T12:17:44;6.03;;;2.22;;
26319;SDS011;14024;52.226;5.200;2022-08-01T12:20:11;9.35;;;2.17;;
26319;SDS011;14024;52.226;5.200;2022-08-01T12:22:37;6.97;;;2.10;;
26319;SDS011;14024;52.226;5.200;2022-08-01T12:25:11;8.63;;;1.83;;
26319;SDS011;14024;52.226;5.200;2022-08-01T12:27:37;7.40;;;2.10;;
26319;SDS011;14024;52.226;5.200;2022-08-01T12:30:11;5.47;;;2.15;;
26319;SDS011;14024;52.226;5.200;2022-08-01T12:35:05;4.70;;;1.75;;
26319;SDS011;14024;52.226;5.200;2022-08-01T12:37:35;7.15;;;1.90;;
26319;SDS011;14024;52.226;5.200;2022-08-01T12:40:02;3.88;;;1.73;;
26319;SDS011;14024;52.226;5.200;2022-08-01T12:42:39;4.90;;;2.38;;
26319;SDS011;14024;52.226;5.200;2022-08-01T12:45:07;6.72;;;2.40;;
26319;SDS011;14024;52.226;5.200;2022-08-01T12:47:33;7.05;;;2.00;;
26319;SDS011;14024;52.226;5.200;2022-08-01T12:50:00;5.20;;;1.85;;
26319;SDS011;14024;52.226;5.200;2022-08-01T12:52:26;6.68;;;1.80;;
26319;SDS011;14024;52.226;5.200;2022-08-01T12:55:06;6.68;;;2.08;;
26319;SDS011;14024;52.226;5.200;2022-08-01T12:57:36;4.93;;;1.80;;
26319;SDS011;14024;52.226;5.200;2022-08-01T13:02:32;3.95;;;2.50;;
26319;SDS011;14024;52.226;5.200;2022-08-01T13:04:58;4.80;;;1.80;;
26319;SDS011;14024;52.226;5.200;2022-08-01T13:07:34;3.67;;;1.40;;
26319;SDS011;14024;52.226;5.200;2022-08-01T13:10:01;3.17;;;1.70;;
26319;SDS011;14024;52.226;5.200;2022-08-01T13:12:27;3.78;;;1.80;;
26319;SDS011;14024;52.226;5.200;2022-08-01T13:14:53;4.40;;;1.50;;
26319;SDS011;14024;52.226;5.200;2022-08-01T13:17:34;1.52;;;1.13;;
26319;SDS011;14024;52.226;5.200;2022-08-01T13:20:02;5.00;;;1.98;;
26319;SDS011;14024;52.226;5.200;2022-08-01T13:22:35;2.22;;;1.70;;
26319;SDS011;14024;52.226;5.200;2022-08-01T13:25:11;3.30;;;1.40;;
26319;SDS011;14024;52.226;5.200;2022-08-01T13:27:37;4.07;;;1.52;;
26319;SDS011;14024;52.226;5.200;2022-08-01T13:30:09;2.50;;;1.52;;
26319;SDS011;14024;52.226;5.200;2022-08-01T13:32:36;7.75;;;1.90;;
26319;SDS011;14024;52.226;5.200;2022-08-01T13:35:06;4.28;;;1.80;;
26319;SDS011;14024;52.226;5.200;2022-08-01T13:37:32;3.72;;;1.80;;
26319;SDS011;14024;52.226;5.200;2022-08-01T13:39:58;7.65;;;1.90;;
26319;SDS011;14024;52.226;5.200;2022-08-01T13:42:24;6.60;;;1.90;;
26319;SDS011;14024;52.226;5.200;2022-08-01T13:44:50;11.63;;;2.58;;
26319;SDS011;14024;52.226;5.200;2022-08-01T13:47:16;7.35;;;1.85;;
26319;SDS011;14024;52.226;5.200;2022-08-01T13:49:42;5.53;;;1.65;;
26319;SDS011;14024;52.226;5.200;2022-08-01T13:52:09;5.82;;;1.70;;
26319;SDS011;14024;52.226;5.200;2022-08-01T13:54:35;5.10;;;1.80;;
26319;SDS011;14024;52.226;5.200;2022-08-01T13:57:01;7.95;;;1.80;;
26319;SDS011;14024;52.226;5.200;2022-08-01T13:59:27;7.22;;;1.80;;
26319;SDS011;14024;52.226;5.200;2022-08-01T14:01:53;7.90;;;1.90;;
26319;SDS011;14024;52.226;5.200;2022-08-01T14:04:19;4.50;;;2.10;;
26319;SDS011;14024;52.226;5.200;2022-08-01T14:06:46;5.65;;;2.15;;
26319;SDS011;14024;52.226;5.200;2022-08-01T14:09:12;4.70;;;2.03;;
26319;SDS011;14024;52.226;5.200;2022-08-01T14:11:38;6.65;;;2.15;;
26319;SDS011;14024;52.226;5.200;2022-08-01T14:14:04;10.45;;;1.95;;
26319;SDS011;14024;52.226;5.200;2022-08-01T14:16:30;8.85;;;2.40;;
26319;SDS011;14024;52.226;5.200;2022-08-01T14:18:56;6.03;;;1.80;;
26319;SDS011;14024;52.226;5.200;2022-08-01T14:21:22;9.15;;;2.67;;
26319;SDS011;14024;52.226;5.200;2022-08-01T14:23:47;5.78;;;2.15;;
26319;SDS011;14024;52.226;5.200;2022-08-01T14:26:13;5.63;;;1.83;;
26319;SDS011;14024;52.226;5.200;2022-08-01T14:28:39;3.28;;;1.70;;
26319;SDS011;14024;52.226;5.200;2022-08-01T14:31:06;6.00;;;2.08;;
26319;SDS011;14024;52.226;5.200;2022-08-01T14:33:32;3.63;;;1.85;;
26319;SDS011;14024;52.226;5.200;2022-08-01T14:35:58;4.68;;;2.10;;
26319;SDS011;14024;52.226;5.200;2022-08-01T14:38:24;3.53;;;1.73;;
26319;SDS011;14024;52.226;5.200;2022-08-01T14:40:50;7.72;;;1.80;;
26319;SDS011;14024;52.226;5.200;2022-08-01T14:43:17;7.35;;;2.10;;
26319;SDS011;14024;52.226;5.200;2022-08-01T14:45:44;4.43;;;2.00;;
26319;SDS011;14024;52.226;5.200;2022-08-01T14:48:10;6.20;;;1.85;;
26319;SDS011;14024;52.226;5.200;2022-08-01T14:50:36;3.05;;;1.40;;
26319;SDS011;14024;52.226;5.200;2022-08-01T14:53:02;6.95;;;1.65;;
26319;SDS011;14024;52.226;5.200;2022-08-01T14:55:28;5.95;;;1.23;;
26319;SDS011;14024;52.226;5.200;2022-08-01T14:57:54;3.03;;;1.83;;
26319;SDS011;14024;52.226;5.200;2022-08-01T15:00:21;4.05;;;1.60;;
26319;SDS011;14024;52.226;5.200;2022-08-01T15:02:47;4.00;;;1.85;;
26319;SDS011;14024;52.226;5.200;2022-08-01T15:05:13;8.10;;;1.70;;
26319;SDS011;14024;52.226;5.200;2022-08-01T15:07:39;3.97;;;1.58;;
26319;SDS011;14024;52.226;5.200;2022-08-01T15:10:08;9.02;;;2.58;;
26319;SDS011;14024;52.226;5.200;2022-08-01T15:12:34;4.97;;;2.00;;
26319;SDS011;14024;52.226;5.200;2022-08-01T15:15:00;4.68;;;1.83;;
26319;SDS011;14024;52.226;5.200;2022-08-01T15:17:28;8.38;;;1.98;;
26319;SDS011;14024;52.226;5.200;2022-08-01T15:19:55;5.28;;;2.00;;
26319;SDS011;14024;52.226;5.200;2022-08-01T15:22:22;7.45;;;1.98;;
26319;SDS011;14024;52.226;5.200;2022-08-01T15:24:48;7.75;;;2.28;;
26319;SDS011;14024;52.226;5.200;2022-08-01T15:27:14;5.03;;;1.85;;